AirNav   TITAN Aviation Fuels
 
 1453 users online  

MO80 Oak Ridge Airpark
Mountain Grove, Missouri, USA

GOING TO MOUNTAIN GROVE?


FAA INFORMATION EFFECTIVE 01 DECEMBER 2022

Location

FAA Identifier: MO80
Lat/Long: 37-09-38.1860N 092-19-24.5840W
37-09.636433N 092-19.409733W
37.1606072,-92.3234956
(estimated)
Elevation: 1482 ft. / 452 m (estimated)
Variation: 04E (1985)
From city: 4 miles NW of MOUNTAIN GROVE, MO
Time zone: UTC -6 (UTC -5 during Daylight Saving Time)
Zip code: 65711

Airport Operations

Airport use: Private use. Permission required prior to landing
Activation date: 08/1989
Control tower: no
ARTCC: KANSAS CITY CENTER
FSS: COLUMBIA FLIGHT SERVICE STATION
Attendance: CONTINUOUS
Wind indicator: yes, WINDSOCK ADJACENT RY AT NW END OF ARPT
Segmented circle: no

Nearby radio navigation aids

VOR radial/distance  VOR name  Freq  Var
DGDr072/27.7DOGWOOD VORTAC109.4001E
TBNr194/(36.0)FORNEY VOR110.0000E

Airport Services

Runway Information

Runway 16/34

Dimensions: 2500 x 60 ft. / 762 x 18 m
Surface: turf, in good condition
RUNWAY 16  RUNWAY 34
Traffic pattern: leftleft
Obstructions: 6 ft. fence, 100 ft. from runway3 ft. fence, marked, 100 ft. from runway

Airport Ownership and Management from official FAA records

Ownership: Privately-owned
Owner: OAK RIDGE AIRPARK LLC
3064 AVIATOR LANE
MOUNTAIN GROVE, MO 65771
Phone 417-926-6988
Manager: JOHN D SMITH
3064 AVIATOR LANE
MOUNTAIN GROVE, MO 65771
Phone 417-259-6262

Airport Operational Statistics

Aircraft based on the field: 2
Single engine airplanes: 2
    

Additional Remarks

FOR CD CTC KANSAS CITY ARTCC AT 913-254-8508.

Instrument Procedures

There are no published instrument procedures at MO80.

Some nearby airports with instrument procedures:

1MO - Mountain Grove Memorial Airport (2 nm S)
KTVB - Cabool Memorial Airport (12 nm E)
M48 - Houston Memorial Airport (20 nm NE)
KAOV - Ava Bill Martin Memorial Airport (21 nm SW)
KUNO - West Plains Regional Airport (26 nm SE)
 
Loc | Ops | Rwys | IFR | FBO | Links
Com | Nav | Svcs | Stats | Notes
Area around MO80 (Oak Ridge Airpark)
 
Road maps at: MapQuest Bing Google
 
Aerial photo
WARNING: Photo may not be current or correct
Aerial photo of MO80 (Oak Ridge Airpark)
Photo taken 04-Jul-2013
looking south-southeast.

Do you have a better or more recent aerial photo of Oak Ridge Airpark that you would like to share? If so, please send us your photo.

 
Sectional chart

 
Airport distance calculator
Flying to Oak Ridge Airpark? Find the distance to fly.

From to MO80

Sunrise and sunset
Times for 02-Dec-2022
 Local
(UTC-6)
 Zulu
(UTC)
Morning civil twilight06:3812:38
Sunrise07:0613:06
Sunset16:5122:51
Evening civil twilight17:2023:20

Current date and time
Zulu (UTC)  02-Dec-2022 17:06:26
Local (UTC-6)  02-Dec-2022 11:06:26
 
METAR
KUNO 
26nm SE 
021653Z AUTO 20015G24KT 10SM OVC019 11/03 A3005 RMK AO2 SLP178 T01060033
KLBO 
33nm NW 
021655Z AUTO 19018G29KT 10SM OVC020 12/05 A2993 RMK AO2
KTBN 
35nm N 
021655Z AUTO 17016G25KT 10SM OVC022 12/03 A2995 RMK AO2 PK WND 18027/01 CIG 021 RWY33 SLP147 T01150030 $
KBPK 
48nm S 
021653Z AUTO 21014G20KT 10SM OVC021 11/04 A3004 RMK AO2 SLP174 T01110044 $
TAF
KTBN 
35nm N 
021400Z 0214/0320 18012KT 9999 OVC022 520052 QNH2999INS BECMG 0216/0217 19015G30KT 9999 OVC020 520053 QNH2985INS TEMPO 0217/0223 20015G35KT 9999 OVC020 BECMG 0305/0306 29020G30KT 9000 -SHRA BKN015 OVC022 QNH3006INS BECMG 0308/0309 32012KT 9999 NSW SCT350 510023 QNH3027INS TX15/0220Z TNM02/0314Z
NOTAMs
Click for the latest NOTAMs
NOTAMs are issued by the DoD/FAA and will open in a separate window not controlled by AirNav.

 

 
 

Would you like to see your business listed on this page?

 If your business provides an interesting product or service to pilots, flight crews, aircraft, or users of the Oak Ridge Airpark, you should consider listing it here.  To start the listing process, click on the button below
 
Add a business
 

Other Pages about Oak Ridge Airpark

www.johnstonsnest.com
 
Update a link
 
Copyright © AirNav, LLC. All rights reserved. Privacy Policy  Contact